sensor_id;sensor_type;location;lat;lon;timestamp;P1;durP1;ratioP1;P2;durP2;ratioP2
31774;SDS011;66189;49.000;11.640;2023-04-06T00:00:11;7.65;;;3.92;;
31774;SDS011;66189;49.000;11.640;2023-04-06T00:02:12;8.50;;;4.32;;
31774;SDS011;66189;49.000;11.640;2023-04-06T00:04:12;9.25;;;4.47;;
31774;SDS011;66189;49.000;11.640;2023-04-06T00:06:13;7.95;;;4.35;;
31774;SDS011;66189;49.000;11.640;2023-04-06T00:08:13;7.68;;;4.15;;
31774;SDS011;66189;49.000;11.640;2023-04-06T00:10:13;7.65;;;4.35;;
31774;SDS011;66189;49.000;11.640;2023-04-06T00:12:14;5.93;;;3.63;;
31774;SDS011;66189;49.000;11.640;2023-04-06T00:14:15;8.60;;;4.10;;
31774;SDS011;66189;49.000;11.640;2023-04-06T00:16:17;11.05;;;4.57;;
31774;SDS011;66189;49.000;11.640;2023-04-06T00:18:17;8.40;;;4.53;;
31774;SDS011;66189;49.000;11.640;2023-04-06T00:20:18;9.60;;;4.70;;
31774;SDS011;66189;49.000;11.640;2023-04-06T00:22:19;10.30;;;4.15;;
31774;SDS011;66189;49.000;11.640;2023-04-06T00:24:19;9.27;;;4.25;;
31774;SDS011;66189;49.000;11.640;2023-04-06T00:26:20;12.27;;;4.50;;
31774;SDS011;66189;49.000;11.640;2023-04-06T00:28:22;7.45;;;4.32;;
31774;SDS011;66189;49.000;11.640;2023-04-06T00:30:25;7.00;;;4.43;;
31774;SDS011;66189;49.000;11.640;2023-04-06T00:32:26;8.52;;;4.85;;
31774;SDS011;66189;49.000;11.640;2023-04-06T00:34:26;7.05;;;4.45;;
31774;SDS011;66189;49.000;11.640;2023-04-06T00:36:26;7.38;;;3.90;;
31774;SDS011;66189;49.000;11.640;2023-04-06T00:38:27;8.30;;;4.43;;
31774;SDS011;66189;49.000;11.640;2023-04-06T00:40:27;8.52;;;4.57;;
31774;SDS011;66189;49.000;11.640;2023-04-06T00:42:28;8.57;;;4.80;;
31774;SDS011;66189;49.000;11.640;2023-04-06T00:44:29;6.30;;;3.75;;
31774;SDS011;66189;49.000;11.640;2023-04-06T00:46:29;7.07;;;4.57;;
31774;SDS011;66189;49.000;11.640;2023-04-06T00:48:30;9.75;;;4.60;;
31774;SDS011;66189;49.000;11.640;2023-04-06T00:50:31;9.23;;;4.47;;
31774;SDS011;66189;49.000;11.640;2023-04-06T00:52:32;7.95;;;4.82;;
31774;SDS011;66189;49.000;11.640;2023-04-06T00:54:34;8.90;;;4.32;;
31774;SDS011;66189;49.000;11.640;2023-04-06T00:56:35;7.00;;;3.35;;
31774;SDS011;66189;49.000;11.640;2023-04-06T00:58:35;7.45;;;4.18;;
31774;SDS011;66189;49.000;11.640;2023-04-06T01:00:40;9.27;;;4.07;;
31774;SDS011;66189;49.000;11.640;2023-04-06T01:02:42;7.22;;;4.20;;
31774;SDS011;66189;49.000;11.640;2023-04-06T01:04:45;10.68;;;5.20;;
31774;SDS011;66189;49.000;11.640;2023-04-06T01:06:54;11.20;;;4.45;;
31774;SDS011;66189;49.000;11.640;2023-04-06T01:09:03;8.05;;;4.22;;
31774;SDS011;66189;49.000;11.640;2023-04-06T01:11:03;7.97;;;4.05;;
31774;SDS011;66189;49.000;11.640;2023-04-06T01:13:04;10.20;;;4.13;;
31774;SDS011;66189;49.000;11.640;2023-04-06T01:15:20;6.28;;;4.28;;
31774;SDS011;66189;49.000;11.640;2023-04-06T01:17:24;8.48;;;4.35;;
31774;SDS011;66189;49.000;11.640;2023-04-06T01:19:25;9.15;;;4.55;;
31774;SDS011;66189;49.000;11.640;2023-04-06T01:21:27;12.02;;;4.80;;
31774;SDS011;66189;49.000;11.640;2023-04-06T01:23:48;7.70;;;4.55;;
31774;SDS011;66189;49.000;11.640;2023-04-06T01:25:54;6.97;;;4.00;;
31774;SDS011;66189;49.000;11.640;2023-04-06T01:27:55;19.38;;;4.20;;
31774;SDS011;66189;49.000;11.640;2023-04-06T01:29:58;9.00;;;4.15;;
31774;SDS011;66189;49.000;11.640;2023-04-06T01:32:25;5.90;;;3.88;;
31774;SDS011;66189;49.000;11.640;2023-04-06T01:34:26;9.48;;;4.43;;
31774;SDS011;66189;49.000;11.640;2023-04-06T01:36:28;5.88;;;4.00;;
31774;SDS011;66189;49.000;11.640;2023-04-06T01:38:37;8.98;;;4.47;;
31774;SDS011;66189;49.000;11.640;2023-04-06T01:40:38;7.45;;;3.97;;
31774;SDS011;66189;49.000;11.640;2023-04-06T01:42:40;8.88;;;4.80;;
31774;SDS011;66189;49.000;11.640;2023-04-06T01:44:42;8.50;;;4.05;;
31774;SDS011;66189;49.000;11.640;2023-04-06T01:46:47;10.88;;;4.47;;
31774;SDS011;66189;49.000;11.640;2023-04-06T01:48:52;8.07;;;4.35;;
31774;SDS011;66189;49.000;11.640;2023-04-06T01:53:21;7.88;;;4.40;;
31774;SDS011;66189;49.000;11.640;2023-04-06T01:55:21;9.40;;;4.30;;
31774;SDS011;66189;49.000;11.640;2023-04-06T01:57:45;8.18;;;4.50;;
31774;SDS011;66189;49.000;11.640;2023-04-06T01:59:52;7.43;;;4.43;;
31774;SDS011;66189;49.000;11.640;2023-04-06T02:01:58;10.98;;;4.28;;
31774;SDS011;66189;49.000;11.640;2023-04-06T02:04:01;8.65;;;4.45;;
31774;SDS011;66189;49.000;11.640;2023-04-06T02:06:01;8.48;;;4.10;;
31774;SDS011;66189;49.000;11.640;2023-04-06T02:08:07;8.15;;;4.93;;
31774;SDS011;66189;49.000;11.640;2023-04-06T02:10:12;7.95;;;4.60;;
31774;SDS011;66189;49.000;11.640;2023-04-06T02:12:13;8.32;;;4.88;;
31774;SDS011;66189;49.000;11.640;2023-04-06T02:14:13;7.53;;;4.53;;
31774;SDS011;66189;49.000;11.640;2023-04-06T02:16:20;10.60;;;4.93;;
31774;SDS011;66189;49.000;11.640;2023-04-06T02:18:20;9.13;;;4.50;;
31774;SDS011;66189;49.000;11.640;2023-04-06T02:20:21;7.57;;;4.78;;
31774;SDS011;66189;49.000;11.640;2023-04-06T02:22:21;6.10;;;4.28;;
31774;SDS011;66189;49.000;11.640;2023-04-06T02:24:22;16.60;;;4.72;;
31774;SDS011;66189;49.000;11.640;2023-04-06T02:26:22;17.05;;;5.07;;
31774;SDS011;66189;49.000;11.640;2023-04-06T02:28:22;11.13;;;4.97;;
31774;SDS011;66189;49.000;11.640;2023-04-06T02:30:23;14.10;;;4.88;;
31774;SDS011;66189;49.000;11.640;2023-04-06T02:32:23;9.55;;;4.63;;
31774;SDS011;66189;49.000;11.640;2023-04-06T02:34:25;7.05;;;4.95;;
31774;SDS011;66189;49.000;11.640;2023-04-06T02:36:26;8.68;;;4.35;;
31774;SDS011;66189;49.000;11.640;2023-04-06T02:38:26;6.80;;;4.55;;
31774;SDS011;66189;49.000;11.640;2023-04-06T02:40:26;13.23;;;4.65;;
31774;SDS011;66189;49.000;11.640;2023-04-06T02:42:27;5.65;;;3.97;;
31774;SDS011;66189;49.000;11.640;2023-04-06T02:44:27;7.47;;;4.55;;
31774;SDS011;66189;49.000;11.640;2023-04-06T02:46:27;7.45;;;4.40;;
31774;SDS011;66189;49.000;11.640;2023-04-06T02:48:28;10.85;;;4.95;;
31774;SDS011;66189;49.000;11.640;2023-04-06T02:50:28;14.40;;;6.72;;
31774;SDS011;66189;49.000;11.640;2023-04-06T02:52:34;13.80;;;6.32;;
31774;SDS011;66189;49.000;11.640;2023-04-06T02:54:34;9.30;;;5.43;;
31774;SDS011;66189;49.000;11.640;2023-04-06T02:56:36;10.63;;;4.55;;
31774;SDS011;66189;49.000;11.640;2023-04-06T02:58:37;7.65;;;4.20;;
31774;SDS011;66189;49.000;11.640;2023-04-06T03:00:37;11.45;;;4.38;;
31774;SDS011;66189;49.000;11.640;2023-04-06T03:02:38;8.30;;;4.88;;
31774;SDS011;66189;49.000;11.640;2023-04-06T03:04:43;8.18;;;4.88;;
31774;SDS011;66189;49.000;11.640;2023-04-06T03:06:54;10.07;;;4.80;;
31774;SDS011;66189;49.000;11.640;2023-04-06T03:09:06;10.15;;;4.68;;
31774;SDS011;66189;49.000;11.640;2023-04-06T03:11:07;6.95;;;4.60;;
31774;SDS011;66189;49.000;11.640;2023-04-06T03:13:12;9.23;;;5.10;;
31774;SDS011;66189;49.000;11.640;2023-04-06T03:15:22;12.32;;;6.93;;
31774;SDS011;66189;49.000;11.640;2023-04-06T03:17:28;9.68;;;5.05;;
31774;SDS011;66189;49.000;11.640;2023-04-06T03:19:32;10.02;;;5.50;;
31774;SDS011;66189;49.000;11.640;2023-04-06T03:21:36;8.82;;;4.95;;
31774;SDS011;66189;49.000;11.640;2023-04-06T03:23:36;7.97;;;4.72;;
31774;SDS011;66189;49.000;11.640;2023-04-06T03:25:37;7.55;;;5.28;;
31774;SDS011;66189;49.000;11.640;2023-04-06T03:27:40;8.35;;;4.63;;
31774;SDS011;66189;49.000;11.640;2023-04-06T03:29:44;10.77;;;4.95;;
31774;SDS011;66189;49.000;11.640;2023-04-06T03:31:48;9.40;;;4.82;;
31774;SDS011;66189;49.000;11.640;2023-04-06T03:34:01;6.25;;;4.22;;
31774;SDS011;66189;49.000;11.640;2023-04-06T03:36:05;9.35;;;4.95;;
31774;SDS011;66189;49.000;11.640;2023-04-06T03:38:10;8.57;;;4.57;;
31774;SDS011;66189;49.000;11.640;2023-04-06T03:40:10;7.43;;;4.50;;
31774;SDS011;66189;49.000;11.640;2023-04-06T03:42:11;12.05;;;6.45;;
31774;SDS011;66189;49.000;11.640;2023-04-06T03:44:18;11.05;;;6.35;;
31774;SDS011;66189;49.000;11.640;2023-04-06T03:46:18;7.95;;;5.10;;
31774;SDS011;66189;49.000;11.640;2023-04-06T03:48:19;8.85;;;4.90;;
31774;SDS011;66189;49.000;11.640;2023-04-06T03:50:19;10.68;;;4.82;;
31774;SDS011;66189;49.000;11.640;2023-04-06T03:52:19;9.35;;;4.55;;
31774;SDS011;66189;49.000;11.640;2023-04-06T03:54:20;12.35;;;5.40;;
31774;SDS011;66189;49.000;11.640;2023-04-06T03:56:20;6.97;;;5.00;;
31774;SDS011;66189;49.000;11.640;2023-04-06T03:58:21;8.02;;;5.03;;
31774;SDS011;66189;49.000;11.640;2023-04-06T04:00:21;13.43;;;6.65;;
31774;SDS011;66189;49.000;11.640;2023-04-06T04:02:22;11.88;;;6.18;;
31774;SDS011;66189;49.000;11.640;2023-04-06T04:04:24;9.68;;;5.70;;
31774;SDS011;66189;49.000;11.640;2023-04-06T04:06:25;17.13;;;6.70;;
31774;SDS011;66189;49.000;11.640;2023-04-06T04:08:25;16.58;;;6.13;;
31774;SDS011;66189;49.000;11.640;2023-04-06T04:10:25;15.00;;;6.55;;
31774;SDS011;66189;49.000;11.640;2023-04-06T04:12:26;19.58;;;8.73;;
31774;SDS011;66189;49.000;11.640;2023-04-06T04:14:26;26.10;;;8.70;;
31774;SDS011;66189;49.000;11.640;2023-04-06T04:16:26;12.80;;;6.40;;
31774;SDS011;66189;49.000;11.640;2023-04-06T04:18:27;10.38;;;5.57;;
31774;SDS011;66189;49.000;11.640;2023-04-06T04:20:27;11.73;;;5.68;;
31774;SDS011;66189;49.000;11.640;2023-04-06T04:22:29;12.32;;;5.43;;
31774;SDS011;66189;49.000;11.640;2023-04-06T04:24:30;9.35;;;5.63;;
31774;SDS011;66189;49.000;11.640;2023-04-06T04:26:30;8.15;;;5.43;;
31774;SDS011;66189;49.000;11.640;2023-04-06T04:28:31;10.32;;;5.20;;
31774;SDS011;66189;49.000;11.640;2023-04-06T04:30:32;7.65;;;4.97;;
31774;SDS011;66189;49.000;11.640;2023-04-06T04:32:32;8.85;;;4.78;;
31774;SDS011;66189;49.000;11.640;2023-04-06T04:34:35;8.13;;;5.18;;
31774;SDS011;66189;49.000;11.640;2023-04-06T04:36:42;6.45;;;4.97;;
31774;SDS011;66189;49.000;11.640;2023-04-06T04:38:45;9.25;;;4.63;;
31774;SDS011;66189;49.000;11.640;2023-04-06T04:40:47;8.65;;;5.10;;
31774;SDS011;66189;49.000;11.640;2023-04-06T04:42:49;9.60;;;5.28;;
31774;SDS011;66189;49.000;11.640;2023-04-06T04:44:57;9.68;;;5.00;;
31774;SDS011;66189;49.000;11.640;2023-04-06T04:47:08;10.68;;;4.40;;
31774;SDS011;66189;49.000;11.640;2023-04-06T04:49:16;6.57;;;4.95;;
31774;SDS011;66189;49.000;11.640;2023-04-06T04:51:17;11.55;;;5.18;;
31774;SDS011;66189;49.000;11.640;2023-04-06T04:53:29;12.70;;;5.20;;
31774;SDS011;66189;49.000;11.640;2023-04-06T04:55:36;9.48;;;5.43;;
31774;SDS011;66189;49.000;11.640;2023-04-06T04:57:38;11.15;;;5.68;;
31774;SDS011;66189;49.000;11.640;2023-04-06T04:59:39;9.00;;;5.38;;
31774;SDS011;66189;49.000;11.640;2023-04-06T05:01:52;9.65;;;5.50;;
31774;SDS011;66189;49.000;11.640;2023-04-06T05:03:53;12.13;;;5.47;;
31774;SDS011;66189;49.000;11.640;2023-04-06T05:05:54;11.02;;;5.30;;
31774;SDS011;66189;49.000;11.640;2023-04-06T05:07:57;8.73;;;5.38;;
31774;SDS011;66189;49.000;11.640;2023-04-06T05:10:09;15.60;;;5.20;;
31774;SDS011;66189;49.000;11.640;2023-04-06T05:12:19;7.35;;;4.80;;
31774;SDS011;66189;49.000;11.640;2023-04-06T05:14:28;10.70;;;5.45;;
31774;SDS011;66189;49.000;11.640;2023-04-06T05:16:30;8.55;;;5.32;;
31774;SDS011;66189;49.000;11.640;2023-04-06T05:18:31;11.27;;;6.20;;
31774;SDS011;66189;49.000;11.640;2023-04-06T05:20:32;12.40;;;6.28;;
31774;SDS011;66189;49.000;11.640;2023-04-06T05:22:33;11.18;;;5.68;;
31774;SDS011;66189;49.000;11.640;2023-04-06T05:24:39;10.57;;;6.57;;
31774;SDS011;66189;49.000;11.640;2023-04-06T05:26:41;9.98;;;6.45;;
31774;SDS011;66189;49.000;11.640;2023-04-06T05:28:50;11.02;;;6.30;;
31774;SDS011;66189;49.000;11.640;2023-04-06T05:30:52;11.73;;;6.88;;
31774;SDS011;66189;49.000;11.640;2023-04-06T05:32:53;10.40;;;6.93;;
31774;SDS011;66189;49.000;11.640;2023-04-06T05:34:55;13.20;;;6.93;;
31774;SDS011;66189;49.000;11.640;2023-04-06T05:36:56;16.75;;;7.75;;
31774;SDS011;66189;49.000;11.640;2023-04-06T05:38:59;15.80;;;8.25;;
31774;SDS011;66189;49.000;11.640;2023-04-06T05:41:22;12.27;;;7.75;;
31774;SDS011;66189;49.000;11.640;2023-04-06T05:43:24;10.57;;;7.10;;
31774;SDS011;66189;49.000;11.640;2023-04-06T05:45:28;10.95;;;6.35;;
31774;SDS011;66189;49.000;11.640;2023-04-06T05:47:30;9.75;;;6.20;;
31774;SDS011;66189;49.000;11.640;2023-04-06T05:49:38;12.73;;;6.10;;
31774;SDS011;66189;49.000;11.640;2023-04-06T05:51:44;12.23;;;6.30;;
31774;SDS011;66189;49.000;11.640;2023-04-06T05:53:44;11.13;;;6.35;;
31774;SDS011;66189;49.000;11.640;2023-04-06T05:55:45;11.45;;;6.15;;
31774;SDS011;66189;49.000;11.640;2023-04-06T05:57:52;15.82;;;6.80;;
31774;SDS011;66189;49.000;11.640;2023-04-06T05:59:54;12.35;;;6.53;;
31774;SDS011;66189;49.000;11.640;2023-04-06T06:02:02;10.93;;;5.97;;
31774;SDS011;66189;49.000;11.640;2023-04-06T06:04:05;10.25;;;6.43;;
31774;SDS011;66189;49.000;11.640;2023-04-06T06:06:09;12.75;;;6.88;;
31774;SDS011;66189;49.000;11.640;2023-04-06T06:08:21;13.77;;;6.95;;
31774;SDS011;66189;49.000;11.640;2023-04-06T06:10:25;8.88;;;5.82;;
31774;SDS011;66189;49.000;11.640;2023-04-06T06:12:25;13.20;;;6.00;;
31774;SDS011;66189;49.000;11.640;2023-04-06T06:14:26;11.27;;;5.97;;
31774;SDS011;66189;49.000;11.640;2023-04-06T06:16:28;13.63;;;6.78;;
31774;SDS011;66189;49.000;11.640;2023-04-06T06:18:29;10.68;;;5.97;;
31774;SDS011;66189;49.000;11.640;2023-04-06T06:20:29;10.48;;;6.35;;
31774;SDS011;66189;49.000;11.640;2023-04-06T06:22:33;8.70;;;5.50;;
31774;SDS011;66189;49.000;11.640;2023-04-06T06:24:35;8.35;;;5.53;;
31774;SDS011;66189;49.000;11.640;2023-04-06T06:26:35;11.25;;;5.43;;
31774;SDS011;66189;49.000;11.640;2023-04-06T06:28:38;9.35;;;5.50;;
31774;SDS011;66189;49.000;11.640;2023-04-06T06:30:38;9.73;;;5.60;;
31774;SDS011;66189;49.000;11.640;2023-04-06T06:32:39;11.43;;;5.70;;
31774;SDS011;66189;49.000;11.640;2023-04-06T06:34:40;10.20;;;7.53;;
31774;SDS011;66189;49.000;11.640;2023-04-06T06:36:42;11.15;;;5.80;;
31774;SDS011;66189;49.000;11.640;2023-04-06T06:38:44;9.07;;;5.53;;
31774;SDS011;66189;49.000;11.640;2023-04-06T06:40:49;7.43;;;5.25;;
31774;SDS011;66189;49.000;11.640;2023-04-06T06:42:50;9.15;;;5.43;;
31774;SDS011;66189;49.000;11.640;2023-04-06T06:45:00;7.22;;;4.95;;
31774;SDS011;66189;49.000;11.640;2023-04-06T06:47:00;11.85;;;5.97;;
31774;SDS011;66189;49.000;11.640;2023-04-06T06:49:01;12.82;;;5.60;;
31774;SDS011;66189;49.000;11.640;2023-04-06T06:51:01;9.07;;;5.75;;
31774;SDS011;66189;49.000;11.640;2023-04-06T06:53:01;7.97;;;5.18;;
31774;SDS011;66189;49.000;11.640;2023-04-06T06:55:02;11.48;;;6.10;;
31774;SDS011;66189;49.000;11.640;2023-04-06T06:57:03;11.98;;;6.18;;
31774;SDS011;66189;49.000;11.640;2023-04-06T06:59:03;8.88;;;5.75;;
31774;SDS011;66189;49.000;11.640;2023-04-06T07:01:04;11.45;;;6.25;;
31774;SDS011;66189;49.000;11.640;2023-04-06T07:03:05;11.82;;;6.65;;
31774;SDS011;66189;49.000;11.640;2023-04-06T07:05:07;12.30;;;6.97;;
31774;SDS011;66189;49.000;11.640;2023-04-06T07:07:08;9.13;;;6.78;;
31774;SDS011;66189;49.000;11.640;2023-04-06T07:09:08;9.60;;;6.10;;
31774;SDS011;66189;49.000;11.640;2023-04-06T07:11:08;10.90;;;5.75;;
31774;SDS011;66189;49.000;11.640;2023-04-06T07:13:09;12.77;;;5.95;;
31774;SDS011;66189;49.000;11.640;2023-04-06T07:15:09;11.75;;;5.63;;
31774;SDS011;66189;49.000;11.640;2023-04-06T07:17:10;8.82;;;5.82;;
31774;SDS011;66189;49.000;11.640;2023-04-06T07:19:11;10.52;;;5.93;;
31774;SDS011;66189;49.000;11.640;2023-04-06T07:21:11;11.93;;;6.07;;
31774;SDS011;66189;49.000;11.640;2023-04-06T07:25:13;11.70;;;5.47;;
31774;SDS011;66189;49.000;11.640;2023-04-06T07:27:15;10.90;;;6.03;;
31774;SDS011;66189;49.000;11.640;2023-04-06T07:29:17;9.75;;;5.90;;
31774;SDS011;66189;49.000;11.640;2023-04-06T07:31:18;10.25;;;6.07;;
31774;SDS011;66189;49.000;11.640;2023-04-06T07:33:18;10.15;;;5.53;;
31774;SDS011;66189;49.000;11.640;2023-04-06T07:35:20;11.05;;;5.82;;
31774;SDS011;66189;49.000;11.640;2023-04-06T07:37:20;9.93;;;6.15;;
31774;SDS011;66189;49.000;11.640;2023-04-06T07:39:21;9.68;;;6.47;;
31774;SDS011;66189;49.000;11.640;2023-04-06T07:41:22;9.52;;;5.90;;
31774;SDS011;66189;49.000;11.640;2023-04-06T07:43:23;11.45;;;5.82;;
31774;SDS011;66189;49.000;11.640;2023-04-06T07:45:25;11.00;;;6.57;;
31774;SDS011;66189;49.000;11.640;2023-04-06T07:47:26;10.07;;;6.10;;
31774;SDS011;66189;49.000;11.640;2023-04-06T07:49:27;11.93;;;6.40;;
31774;SDS011;66189;49.000;11.640;2023-04-06T07:51:27;12.65;;;6.05;;
31774;SDS011;66189;49.000;11.640;2023-04-06T07:55:28;14.53;;;6.37;;
31774;SDS011;66189;49.000;11.640;2023-04-06T07:59:29;12.20;;;6.27;;
31774;SDS011;66189;49.000;11.640;2023-04-06T08:01:29;11.23;;;6.75;;
31774;SDS011;66189;49.000;11.640;2023-04-06T08:03:32;9.07;;;5.95;;
31774;SDS011;66189;49.000;11.640;2023-04-06T08:05:33;11.70;;;5.88;;
31774;SDS011;66189;49.000;11.640;2023-04-06T08:07:34;10.80;;;5.95;;
31774;SDS011;66189;49.000;11.640;2023-04-06T08:09:35;9.85;;;6.22;;
31774;SDS011;66189;49.000;11.640;2023-04-06T08:11:35;13.45;;;6.43;;
31774;SDS011;66189;49.000;11.640;2023-04-06T08:13:36;10.60;;;6.15;;
31774;SDS011;66189;49.000;11.640;2023-04-06T08:17:36;10.50;;;5.67;;
31774;SDS011;66189;49.000;11.640;2023-04-06T08:19:37;10.07;;;6.03;;
31774;SDS011;66189;49.000;11.640;2023-04-06T08:21:37;9.23;;;5.82;;
31774;SDS011;66189;49.000;11.640;2023-04-06T08:25:38;9.57;;;5.37;;
31774;SDS011;66189;49.000;11.640;2023-04-06T08:27:38;10.07;;;6.13;;
31774;SDS011;66189;49.000;11.640;2023-04-06T08:31:39;11.93;;;6.67;;
31774;SDS011;66189;49.000;11.640;2023-04-06T08:35:40;11.60;;;5.97;;
31774;SDS011;66189;49.000;11.640;2023-04-06T08:39:41;11.97;;;5.83;;
31774;SDS011;66189;49.000;11.640;2023-04-06T08:41:41;9.35;;;5.90;;
31774;SDS011;66189;49.000;11.640;2023-04-06T08:44:03;10.48;;;5.90;;
31774;SDS011;66189;49.000;11.640;2023-04-06T08:46:04;10.80;;;6.25;;
31774;SDS011;66189;49.000;11.640;2023-04-06T08:48:05;9.40;;;6.15;;
31774;SDS011;66189;49.000;11.640;2023-04-06T08:50:08;13.77;;;6.65;;
31774;SDS011;66189;49.000;11.640;2023-04-06T08:52:08;13.07;;;6.43;;
31774;SDS011;66189;49.000;11.640;2023-04-06T08:54:10;10.18;;;5.95;;
31774;SDS011;66189;49.000;11.640;2023-04-06T08:56:11;13.52;;;7.13;;
31774;SDS011;66189;49.000;11.640;2023-04-06T08:58:12;12.40;;;6.38;;
31774;SDS011;66189;49.000;11.640;2023-04-06T09:02:15;17.15;;;9.52;;
31774;SDS011;66189;49.000;11.640;2023-04-06T09:04:18;16.17;;;9.15;;
31774;SDS011;66189;49.000;11.640;2023-04-06T09:06:18;13.40;;;5.97;;
31774;SDS011;66189;49.000;11.640;2023-04-06T09:08:19;9.00;;;6.50;;
31774;SDS011;66189;49.000;11.640;2023-04-06T09:10:19;10.60;;;5.97;;
31774;SDS011;66189;49.000;11.640;2023-04-06T09:12:24;10.65;;;5.95;;
31774;SDS011;66189;49.000;11.640;2023-04-06T09:14:37;12.65;;;6.68;;
31774;SDS011;66189;49.000;11.640;2023-04-06T09:16:41;14.32;;;6.60;;
31774;SDS011;66189;49.000;11.640;2023-04-06T09:18:43;11.13;;;6.10;;
31774;SDS011;66189;49.000;11.640;2023-04-06T09:20:44;10.40;;;6.32;;
31774;SDS011;66189;49.000;11.640;2023-04-06T09:24:49;10.33;;;6.07;;
31774;SDS011;66189;49.000;11.640;2023-04-06T09:26:51;9.02;;;6.20;;
31774;SDS011;66189;49.000;11.640;2023-04-06T09:28:52;13.70;;;6.85;;
31774;SDS011;66189;49.000;11.640;2023-04-06T09:30:54;10.70;;;6.35;;
31774;SDS011;66189;49.000;11.640;2023-04-06T09:32:55;12.35;;;6.45;;
31774;SDS011;66189;49.000;11.640;2023-04-06T09:35:09;9.00;;;5.82;;
31774;SDS011;66189;49.000;11.640;2023-04-06T09:37:15;10.90;;;6.80;;
31774;SDS011;66189;49.000;11.640;2023-04-06T09:39:19;13.05;;;6.35;;
31774;SDS011;66189;49.000;11.640;2023-04-06T09:41:24;12.85;;;8.15;;
31774;SDS011;66189;49.000;11.640;2023-04-06T09:43:26;9.98;;;6.90;;
31774;SDS011;66189;49.000;11.640;2023-04-06T09:45:27;10.43;;;6.82;;
31774;SDS011;66189;49.000;11.640;2023-04-06T09:47:31;10.23;;;6.15;;
31774;SDS011;66189;49.000;11.640;2023-04-06T09:49:33;13.65;;;7.55;;
31774;SDS011;66189;49.000;11.640;2023-04-06T09:51:37;10.05;;;6.63;;
31774;SDS011;66189;49.000;11.640;2023-04-06T09:53:39;12.95;;;7.25;;
31774;SDS011;66189;49.000;11.640;2023-04-06T09:55:45;11.30;;;6.65;;
31774;SDS011;66189;49.000;11.640;2023-04-06T09:58:00;13.30;;;8.13;;
31774;SDS011;66189;49.000;11.640;2023-04-06T10:00:06;11.43;;;6.80;;
31774;SDS011;66189;49.000;11.640;2023-04-06T10:02:18;12.52;;;6.55;;
31774;SDS011;66189;49.000;11.640;2023-04-06T10:04:42;13.95;;;8.00;;
31774;SDS011;66189;49.000;11.640;2023-04-06T10:06:43;10.93;;;7.40;;
31774;SDS011;66189;49.000;11.640;2023-04-06T10:08:48;12.15;;;7.75;;
31774;SDS011;66189;49.000;11.640;2023-04-06T10:10:54;13.57;;;8.10;;
31774;SDS011;66189;49.000;11.640;2023-04-06T10:12:55;10.00;;;7.20;;
31774;SDS011;66189;49.000;11.640;2023-04-06T10:14:56;17.15;;;8.05;;
31774;SDS011;66189;49.000;11.640;2023-04-06T10:16:57;12.98;;;7.47;;
31774;SDS011;66189;49.000;11.640;2023-04-06T10:21:12;11.82;;;7.95;;
31774;SDS011;66189;49.000;11.640;2023-04-06T10:25:31;11.52;;;7.88;;
31774;SDS011;66189;49.000;11.640;2023-04-06T10:27:33;14.65;;;8.70;;
31774;SDS011;66189;49.000;11.640;2023-04-06T10:29:43;13.10;;;7.47;;
31774;SDS011;66189;49.000;11.640;2023-04-06T10:31:45;11.43;;;8.38;;
31774;SDS011;66189;49.000;11.640;2023-04-06T10:33:55;12.50;;;7.35;;
31774;SDS011;66189;49.000;11.640;2023-04-06T10:35:56;12.02;;;8.57;;
31774;SDS011;66189;49.000;11.640;2023-04-06T10:38:01;13.10;;;8.20;;
31774;SDS011;66189;49.000;11.640;2023-04-06T10:40:03;13.07;;;8.40;;
31774;SDS011;66189;49.000;11.640;2023-04-06T10:42:05;11.35;;;7.85;;
31774;SDS011;66189;49.000;11.640;2023-04-06T10:44:06;12.93;;;7.63;;
31774;SDS011;66189;49.000;11.640;2023-04-06T10:46:07;9.82;;;7.97;;
31774;SDS011;66189;49.000;11.640;2023-04-06T10:48:12;12.80;;;7.82;;
31774;SDS011;66189;49.000;11.640;2023-04-06T10:50:17;11.30;;;7.60;;
31774;SDS011;66189;49.000;11.640;2023-04-06T10:52:17;13.70;;;7.28;;
31774;SDS011;66189;49.000;11.640;2023-04-06T10:56:21;10.53;;;7.80;;
31774;SDS011;66189;49.000;11.640;2023-04-06T10:58:26;11.10;;;7.30;;
31774;SDS011;66189;49.000;11.640;2023-04-06T11:00:27;10.63;;;7.57;;
31774;SDS011;66189;49.000;11.640;2023-04-06T11:02:27;13.02;;;7.68;;
31774;SDS011;66189;49.000;11.640;2023-04-06T11:06:29;13.30;;;7.33;;
31774;SDS011;66189;49.000;11.640;2023-04-06T11:08:31;13.80;;;7.07;;
31774;SDS011;66189;49.000;11.640;2023-04-06T11:10:33;10.48;;;6.85;;
31774;SDS011;66189;49.000;11.640;2023-04-06T11:12:33;12.07;;;6.68;;
31774;SDS011;66189;49.000;11.640;2023-04-06T11:14:34;9.90;;;6.97;;
31774;SDS011;66189;49.000;11.640;2023-04-06T11:18:35;12.97;;;7.43;;
31774;SDS011;66189;49.000;11.640;2023-04-06T11:22:35;10.47;;;6.80;;
31774;SDS011;66189;49.000;11.640;2023-04-06T11:26:37;11.77;;;7.53;;
31774;SDS011;66189;49.000;11.640;2023-04-06T11:28:44;9.68;;;7.00;;
31774;SDS011;66189;49.000;11.640;2023-04-06T11:30:45;9.95;;;7.22;;
31774;SDS011;66189;49.000;11.640;2023-04-06T11:34:46;11.52;;;6.90;;
31774;SDS011;66189;49.000;11.640;2023-04-06T11:36:48;10.40;;;7.20;;
31774;SDS011;66189;49.000;11.640;2023-04-06T11:38:49;9.70;;;7.07;;
31774;SDS011;66189;49.000;11.640;2023-04-06T11:40:53;9.65;;;7.20;;
31774;SDS011;66189;49.000;11.640;2023-04-06T11:42:54;8.80;;;6.50;;
31774;SDS011;66189;49.000;11.640;2023-04-06T11:44:59;12.30;;;7.05;;
31774;SDS011;66189;49.000;11.640;2023-04-06T11:47:00;10.75;;;7.22;;
31774;SDS011;66189;49.000;11.640;2023-04-06T11:49:02;10.65;;;6.72;;
31774;SDS011;66189;49.000;11.640;2023-04-06T11:51:02;11.57;;;6.78;;
31774;SDS011;66189;49.000;11.640;2023-04-06T11:53:05;10.75;;;7.65;;
31774;SDS011;66189;49.000;11.640;2023-04-06T11:55:11;8.50;;;6.13;;
31774;SDS011;66189;49.000;11.640;2023-04-06T11:59:17;10.23;;;7.00;;
31774;SDS011;66189;49.000;11.640;2023-04-06T12:03:17;10.97;;;7.20;;
31774;SDS011;66189;49.000;11.640;2023-04-06T12:07:18;10.53;;;6.57;;
31774;SDS011;66189;49.000;11.640;2023-04-06T12:11:19;12.27;;;7.17;;
31774;SDS011;66189;49.000;11.640;2023-04-06T12:13:21;10.20;;;7.60;;
31774;SDS011;66189;49.000;11.640;2023-04-06T12:15:22;9.68;;;7.28;;
31774;SDS011;66189;49.000;11.640;2023-04-06T12:19:23;11.83;;;7.13;;
31774;SDS011;66189;49.000;11.640;2023-04-06T12:21:29;12.90;;;7.05;;
31774;SDS011;66189;49.000;11.640;2023-04-06T12:23:37;12.50;;;7.38;;
31774;SDS011;66189;49.000;11.640;2023-04-06T12:25:39;11.10;;;7.88;;
31774;SDS011;66189;49.000;11.640;2023-04-06T12:27:40;7.97;;;6.85;;
31774;SDS011;66189;49.000;11.640;2023-04-06T12:29:41;11.07;;;7.68;;
31774;SDS011;66189;49.000;11.640;2023-04-06T12:31:42;12.18;;;6.97;;
31774;SDS011;66189;49.000;11.640;2023-04-06T12:33:47;9.93;;;6.85;;
31774;SDS011;66189;49.000;11.640;2023-04-06T12:35:51;10.20;;;7.30;;
31774;SDS011;66189;49.000;11.640;2023-04-06T12:37:52;12.98;;;7.78;;
31774;SDS011;66189;49.000;11.640;2023-04-06T12:39:52;10.50;;;7.47;;
31774;SDS011;66189;49.000;11.640;2023-04-06T12:43:53;12.90;;;6.90;;
31774;SDS011;66189;49.000;11.640;2023-04-06T12:47:53;11.93;;;7.40;;
31774;SDS011;66189;49.000;11.640;2023-04-06T12:51:54;11.10;;;7.23;;
31774;SDS011;66189;49.000;11.640;2023-04-06T12:53:55;11.13;;;7.55;;
31774;SDS011;66189;49.000;11.640;2023-04-06T12:55:55;9.07;;;6.65;;